Blue Oak Ranch Reserve, California Weather observations

Data are for 10 minute period ending at time listed.
 Day   Time   Solar   Ave.   Ave.  Ave.  Vector  Max.   Baro.   Total    
  of    of     Rad.   Air    Rel.  Wind   Wind   Wind  Press.  Precip.   
Year   Day            Temp.  Hum.  Speed  Dir.   Gust                    
2020   (PST)  Kw/m2    F      %     mph   deg.    mph    mb.     in.     
-------------------------------------------------------------------------
 261   18:20   0.00   68.3    55    0.0   285     1.4   949.5    0.00 
 261   18:30   0.00   67.5    54    2.1   303     3.8   949.4    0.00 
 261   18:40   0.00   67.1    50    3.2   322     5.2   949.4    0.00 
 261   18:50   0.00   67.2    49    3.0   314     5.2   949.5    0.00 
 261   19:00   0.00   66.3    48    1.9   293     3.7   949.6    0.00 
 261   19:10   0.00   65.0    50    2.8   285     3.8   949.7    0.00 
 261   19:20   0.00   63.9    52    2.1   304     3.1   949.9    0.00 
 261   19:30   0.00   63.5    51    0.9   315     2.3   950.0    0.00 
 261   19:40   0.00   62.3    53    0.9    16     2.5   950.0    0.00 
 261   19:50   0.00   61.9    54    1.7   288     3.9   950.0    0.00 
 261   20:00   0.00   61.9    56    3.2   300     4.5   950.0    0.00 
 261   20:10   0.00   61.6    55    0.9     6     2.5   950.2    0.00 
 261   20:20   0.00   60.1    56    0.4    55     1.4   950.3    0.00 
 261   20:30   0.00   60.1    58    1.4   291     2.3   950.3    0.00 
 261   20:40   0.00   60.1    58    1.8   304     2.6   950.3    0.00 
 261   20:50   0.00   60.7    59    2.4   296     3.9   950.2    0.00 
 261   21:00   0.00   60.7    56    1.2   330     2.3   950.3    0.00 
 261   21:10   0.00   61.1    56    1.3    19     2.7   950.2    0.00 
 261   21:20   0.00   60.7    57    0.7   274     2.0   950.1    0.00 
 261   21:30   0.00   60.2    60    1.8   289     2.2   950.2    0.00 
 261   21:40   0.00   59.6    61    1.9   291     2.8   950.3    0.00 
 261   21:50   0.00   59.2    63    2.6   312     4.7   950.2    0.00 
 261   22:00   0.00   59.3    64    2.5   294     3.7   950.4    0.00 
 261   22:10   0.00   58.6    66    2.9   277     4.4   950.4    0.00 
 261   22:20   0.00   57.8    70    2.2   287     4.6   950.5    0.00 
 261   22:30   0.00   57.3    70    1.5    66     2.6   950.5    0.00 
 261   22:40   0.00   56.9    71    1.1   318     3.1   950.5    0.00 
 261   22:50   0.00   56.4    71    0.7    46     2.3   950.4    0.00 
 261   23:00   0.00   55.9    71    0.5    50     1.8   950.4    0.00 
 261   23:10   0.00   55.7    73    0.0     0     0.0   950.3    0.00 
 261   23:20   0.00   55.7    73    0.1   359     1.0   950.2    0.00 
 261   23:30   0.00   55.7    73    1.2   291     3.1   950.1    0.00 
 261   23:40   0.00   55.4    74    1.7   332     2.9   949.9    0.00 
 261   23:50   0.00   55.4    74    0.4   277     2.3   950.1    0.00 
 262    0:00   0.00   55.3    76    2.0     6     3.7   950.3    0.00 
 262    0:10   0.00   56.0    74    2.2    49     4.6   950.1    0.00 
 262    0:20   0.00   56.4    73    1.8   344     3.0   950.0    0.00 
 262    0:30   0.00   56.4    75    0.6   272     2.6   950.0    0.00 
 262    0:40   0.00   56.1    77    0.8   299     1.8   950.2    0.00 
 262    0:50   0.00   55.7    77    1.5   320     3.1   950.1    0.00 
 262    1:00   0.00   55.9    80    1.5   282     2.3   950.1    0.00 
 262    1:10   0.00   56.0    80    2.3   291     3.6   950.0    0.00 
 262    1:20   0.00   55.4    81    1.6   271     4.1   950.0    0.00 
 262    1:30   0.00   55.2    83    1.4   275     3.4   950.0    0.00 
 262    1:40   0.00   55.2    84    1.3   339     3.9   950.1    0.00 
 262    1:50   0.00   54.8    83    0.4    42     1.8   949.9    0.00 
 262    2:00   0.00   54.4    84    1.3   309     4.5   949.8    0.00 
 262    2:10   0.00   54.2    86    2.9   296     4.6   949.8    0.00 
 262    2:20   0.00   53.7    86    1.7    48     3.4   949.8    0.00 
 262    2:30   0.00   53.6    86    2.2   268     4.6   949.8    0.00 
 262    2:40   0.00   54.6    89    1.3   295     3.9   949.9    0.00 
 262    2:50   0.00   54.0    88    1.2    58     2.7   949.9    0.00 
 262    3:00   0.00   54.0    87    1.8   287     4.4   949.6    0.00 
 262    3:10   0.00   53.9    88    5.3   280     9.6   949.5    0.00 
 262    3:20   0.00   55.5    90    6.0   305    12.1   949.4    0.00 
 262    3:30   0.00   55.5    89    1.1    53     2.6   949.5    0.00 
 262    3:40   0.00   55.9    89    1.5   133     2.8   949.9    0.00 
 262    3:50   0.00   56.1    89    1.6    27     2.2   950.0    0.00 
 262    4:00   0.00   56.6    89    2.0    48     3.7   949.9    0.00 
 262    4:10   0.00   56.9    87    0.5    61     2.4   949.7    0.00 
 262    4:20   0.00   57.0    87    2.3   288     3.8   949.5    0.00 
 262    4:30   0.00   57.1    87    1.6   281     3.7   949.6    0.00 
 262    4:40   0.00   56.8    87    0.8   128     2.9   949.7    0.00 
 262    4:50   0.00   56.5    87    1.2    60     2.2   949.9    0.00 
 262    5:00   0.00   56.6    88    0.3    33     1.8   949.9    0.00 
 262    5:10   0.00   56.4    87    1.0   319     2.1   950.0    0.00 
 262    5:20   0.00   56.4    87    0.7   290     2.3   949.9    0.00 
 262    5:30   0.00   56.5    88    1.4   297     2.7   950.0    0.00 
 262    5:40   0.00   56.6    88    1.6   295     2.9   950.1    0.00 
 262    5:50   0.00   56.5    88    2.3   302     3.3   950.1    0.00 
 262    6:00   0.00   56.0    87    0.8    52     1.7   950.1    0.00 
 262    6:10   0.01   55.8    87    0.3   269     1.2   950.0    0.00 
 262    6:20   0.01   55.9    87    0.2   151     1.0   950.1    0.00 
 262    6:30   0.02   56.0    86    0.0     0     0.0   950.2    0.00 
 262    6:40   0.02   56.0    85    0.3     2     1.3   950.2    0.00 
 262    6:50   0.08   56.7    85    1.2   300     3.1   950.1    0.00 
 262    7:00   0.13   58.2    82    0.5   253     1.8   950.2    0.00 
 262    7:10   0.18   61.4    72    0.5   236     1.8   950.2    0.00 
 262    7:20   0.14   63.9    63    0.9   262     2.0   950.2    0.00 
 262    7:30   0.14   65.1    62    0.8   251     2.1   950.2    0.00 
 262    7:40   0.14   65.7    61    2.8   265     6.7   950.2    0.00 
 262    7:50   0.20   65.8    56    5.2   289     6.9   950.1    0.00 
 262    8:00   0.16   66.0    56    6.0   285     8.5   950.1    0.00 
 262    8:10   0.30   66.9    56    5.5   280     7.4   950.2    0.00 
 262    8:20   0.28   67.9    53    5.3   278     8.5   950.3    0.00 
 262    8:30   0.46   69.2    50    7.8   287    10.7   950.4    0.00 
 262    8:40   0.37   69.9    49    7.2   284    11.5   950.4    0.00 
 262    8:50   0.25   69.1    50    6.8   286    11.3   950.5    0.00 
 262    9:00   0.22   67.9    52    5.4   289    10.4   950.5    0.00 
 262    9:10   0.23   67.0    53    5.0   297     9.3   950.6    0.00 
 262    9:20   0.40   67.0    65    5.7   236     9.1   950.6    0.00 
 262    9:30   0.39   67.2    67    5.4   242     9.0   950.6    0.00 
 262    9:40   0.54   67.4    66    5.4   246     9.9   950.7    0.00 
 262    9:50   0.38   67.5    66    6.5   241    11.8   950.7    0.00 
 262   10:00   0.56   67.0    66    7.0   241    12.4   950.7    0.00 
 262   10:10   0.74   69.1    60    7.1   251    12.0   950.7    0.00 
 262   10:20   0.78   71.3    56    6.8   274    11.1   950.7    0.00 
 262   10:30   0.77   70.6    58    7.6   245    12.7   950.7    0.00 
 262   10:40   0.57   69.3    60    6.5   238    14.6   950.6    0.00 
 262   10:50   0.77   70.7    56    6.2   255    10.4   950.5    0.00 
 262   11:00   0.77   71.4    55    8.0   238    12.5   950.5    0.00 
 262   11:10   0.77   71.5    54    7.7   257    13.7   950.5    0.00 
 262   11:20   0.77   72.2    52    7.1   289    14.5   950.4    0.00 
 262   11:30   0.78   73.7    48    7.4   280    13.4   950.4    0.00 
 262   11:40   0.79   74.0    47    6.6   289    12.1   950.4    0.00 
 262   11:50   0.80   73.7    47    7.6   298    15.1   950.3    0.00 
 262   12:00   0.79   72.8    48    7.8   298    13.0   950.2    0.00 
 262   12:10   0.79   74.0    47    7.9   287    12.2   950.2    0.00 
 262   12:20   0.78   74.0    46    7.7   290    13.1   950.1    0.00 
 262   12:30   0.80   74.1    45    7.6   276    15.0   950.1    0.00 
 262   12:40   0.79   75.0    44    8.7   286    14.2   950.0    0.00 
 262   12:50   0.76   74.3    44    7.9   291    14.1   949.9    0.00 
 262   13:00   0.78   73.8    45    9.5   296    14.8   949.9    0.00 
 262   13:10   0.77   74.1    43    8.8   286    13.9   949.8    0.00 
 262   13:20   0.76   74.5    43    8.6   293    16.1   949.7    0.00 
 262   13:30   0.75   74.5    43    8.2   291    13.9   949.7    0.00 
 262   13:40   0.73   74.6    43    8.3   288    13.7   949.7    0.00 
 262   13:50   0.71   74.9    41    7.2   286    11.9   949.6    0.00 
 262   14:00   0.69   75.7    40    9.3   283    14.1   949.6    0.00 
 262   14:10   0.67   75.8    39    7.8   287    12.9   949.6    0.00 
 262   14:20   0.65   74.5    40    8.3   288    14.0   949.5    0.00 
 262   14:30   0.62   74.3    39    7.8   292    13.0   949.5    0.00 
 262   14:40   0.60   74.6    40    8.7   273    14.2   949.4    0.00 
 262   14:50   0.56   74.4    42    6.8   284    12.6   949.4    0.00 
 262   15:00   0.54   74.2    42    8.4   284    12.8   949.3    0.00 
 262   15:10   0.52   74.3    43    8.4   287    14.2   949.3    0.00 
 262   15:20   0.48   73.8    44    9.5   286    15.3   949.3    0.00 
 262   15:30   0.45   73.8    44    8.3   282    13.3   949.2    0.00 
 262   15:40   0.42   73.5    45    9.6   281    14.4   949.2    0.00 
 262   15:50   0.39   73.0    46    9.1   279    14.3   949.2    0.00 
 262   16:00   0.36   71.9    47    9.9   295    16.3   949.2    0.00 
 262   16:10   0.33   70.8    47    8.4   300    13.8   949.2    0.00 
 262   16:20   0.29   70.7    49    9.7   288    14.2   949.2    0.00 
 262   16:30   0.26   70.5    50    8.3   281    13.4   949.3    0.00 
 262   16:40   0.23   69.6    49    8.0   293    13.5   949.3    0.00 
 262   16:50   0.21   69.5    47    7.8   282    11.8   949.2    0.00 
 262   17:00   0.18   69.3    47    7.3   279    12.3   949.2    0.00 
 262   17:10   0.15   68.7    47    8.7   284    13.7   949.2    0.00 
 262   17:20   0.12   68.0    47    8.2   285    12.5   949.3    0.00 
 262   17:30   0.10   67.2    49    7.2   287    11.1   949.4    0.00 
 262   17:40   0.07   65.9    54    6.4   283     9.3   949.4    0.00 
 262   17:50   0.04   64.6    60    5.7   283     9.1   949.3    0.00 
 262   18:00   0.02   63.4    64    4.0   278     5.8   949.3    0.00 
 262   18:10   0.01   62.5    68    4.0   266     6.5   949.4    0.00 

Return to Blue Oak Ranch Reserve graphs page.


Western Regional Climate Center,wrcc@dri.edu